Time;durP1;ratioP1;P1;durP2;ratioP2;P2;SDS_P1;SDS_P2;PMS_P1;PMS_P2;Temp;Humidity;BMP_temperature;BMP_pressure;BME280_temperature;BME280_humidity;BME280_pressure;Samples;Min_cycle;Max_cycle;Signal;HPM_P1;HPM_P2
2023/06/02 00:01:24;;;;;;;1.37;1.27;;;;;;;21.16;57.52;97241.28;5051984;28;20234;-33
2023/06/02 00:03:53;;;;;;;1.43;1.33;;;;;;;21.15;57.47;97230.22;5052626;28;20201;-29
2023/06/02 00:06:20;;;;;;;1.40;1.30;;;;;;;21.15;57.66;97239.56;5044831;28;20225;-29
2023/06/02 00:08:47;;;;;;;1.60;1.50;;;;;;;21.17;57.54;97237.94;5038889;28;20213;-30
2023/06/02 00:11:14;;;;;;;1.40;1.30;;;;;;;21.15;57.79;97237.91;5045193;28;20220;-29
2023/06/02 00:13:42;;;;;;;1.30;1.30;;;;;;;21.16;57.75;97247.28;5037568;28;20227;-30
2023/06/02 00:16:09;;;;;;;1.50;1.40;;;;;;;21.16;57.57;97243.84;5052047;28;20224;-29
2023/06/02 00:18:37;;;;;;;1.37;1.27;;;;;;;21.16;57.66;97246.41;5045227;28;20690;-29
2023/06/02 00:21:05;;;;;;;1.50;1.40;;;;;;;21.15;57.61;97237.91;5050893;28;20588;-30
2023/06/02 00:23:32;;;;;;;1.40;1.30;;;;;;;21.15;57.65;97239.56;5051708;28;20252;-29
2023/06/02 00:26:00;;;;;;;1.50;1.40;;;;;;;21.15;57.78;97243.00;5047012;28;20656;-29
2023/06/02 00:28:27;;;;;;;1.40;1.30;;;;;;;21.14;57.88;97237.84;5030682;28;20204;-29
2023/06/02 00:30:53;;;;;;;1.30;1.30;;;;;;;21.13;57.67;97236.97;5034587;28;20197;-30
2023/06/02 00:33:20;;;;;;;1.53;1.43;;;;;;;21.12;57.81;97239.50;5047635;28;20634;-30
2023/06/02 00:35:47;;;;;;;1.40;1.30;;;;;;;21.15;57.98;97244.69;5050899;28;20231;-29
2023/06/02 00:38:13;;;;;;;1.40;1.30;;;;;;;20.94;57.71;97210.88;5049318;28;20192;-33
2023/06/02 00:40:40;;;;;;;1.57;1.47;;;;;;;21.13;57.87;97242.09;5044970;28;20197;-30
2023/06/02 00:43:07;;;;;;;1.40;1.30;;;;;;;21.16;57.80;97248.97;5051675;28;20270;-30
2023/06/02 00:45:34;;;;;;;1.40;1.30;;;;;;;21.16;57.58;97249.84;5049783;28;20216;-30
2023/06/02 00:48:01;;;;;;;1.40;1.30;;;;;;;21.12;57.85;97248.03;5039950;28;20626;-29
2023/06/02 00:50:28;;;;;;;1.50;1.40;;;;;;;21.14;57.72;97246.38;5048384;28;20212;-31
2023/06/02 00:52:55;;;;;;;1.43;1.33;;;;;;;21.12;57.71;97244.59;5050187;28;20221;-30
2023/06/02 00:55:22;;;;;;;1.47;1.37;;;;;;;21.14;57.87;97254.03;5033407;28;20727;-29
2023/06/02 00:57:51;;;;;;;1.67;1.37;;;;;;;21.14;57.75;97250.63;5050047;28;20206;-29
2023/06/02 01:00:19;;;;;;;1.50;1.40;;;;;;;21.14;57.81;97254.03;5038466;28;20204;-30
2023/06/02 01:02:45;;;;;;;1.57;1.47;;;;;;;21.15;57.70;97250.66;5041002;28;20299;-29
2023/06/02 01:05:12;;;;;;;1.40;1.30;;;;;;;21.14;57.81;97251.47;5041778;28;20227;-30
2023/06/02 01:07:44;;;;;;;1.60;1.50;;;;;;;21.15;57.74;97249.78;5042683;28;20205;-29
2023/06/02 01:10:13;;;;;;;2.80;1.50;;;;;;;21.13;57.74;97241.22;5034376;28;20204;-30
2023/06/02 01:12:40;;;;;;;1.63;1.50;;;;;;;21.17;57.09;97250.72;5017353;28;20216;-29
2023/06/02 01:15:07;;;;;;;2.23;1.33;;;;;;;21.16;57.83;97259.19;5045385;28;20560;-30
2023/06/02 01:17:35;;;;;;;1.30;1.30;;;;;;;21.16;57.68;97262.63;5048444;28;20200;-30
2023/06/02 01:20:05;;;;;;;1.70;1.60;;;;;;;21.13;57.63;97244.66;5047040;28;20211;-30
2023/06/02 01:23:05;;;;;;;1.50;1.40;;;;;;;21.16;57.72;97249.84;5033054;28;20232;-30
2023/06/02 01:25:32;;;;;;;1.40;1.30;;;;;;;21.14;57.67;97243.81;4983579;28;20221;-29
2023/06/02 01:27:59;;;;;;;1.53;1.43;;;;;;;21.16;58.07;97248.97;5050374;28;20201;-30
2023/06/02 01:30:25;;;;;;;1.60;1.50;;;;;;;21.15;57.68;97245.56;5050586;28;20208;-30
2023/06/02 01:33:02;;;;;;;1.50;1.40;;;;;;;21.14;57.78;97240.41;5049982;28;20227;-30
2023/06/02 01:35:31;;;;;;;1.50;1.40;;;;;;;21.14;57.63;97238.69;5037223;28;20577;-29
2023/06/02 01:37:58;;;;;;;1.50;1.40;;;;;;;21.15;57.57;97237.91;5037143;28;20251;-29
2023/06/02 01:40:25;;;;;;;1.53;1.43;;;;;;;21.15;57.77;97232.78;5046411;28;20205;-30
2023/06/02 01:42:52;;;;;;;1.70;1.60;;;;;;;21.15;57.70;97232.78;5018891;28;20223;-30
2023/06/02 01:45:19;;;;;;;1.60;1.50;;;;;;;21.15;57.81;97237.91;5036655;28;20764;-30
2023/06/02 01:47:46;;;;;;;1.47;1.37;;;;;;;21.16;57.50;97231.94;5054556;28;20741;-29
2023/06/02 01:50:12;;;;;;;1.70;1.60;;;;;;;21.16;57.89;97233.63;5036876;28;20193;-29
2023/06/02 01:52:39;;;;;;;1.60;1.50;;;;;;;21.16;57.78;97229.41;5054431;28;20217;-30
2023/06/02 01:55:06;;;;;;;1.50;1.40;;;;;;;21.17;57.65;97230.28;5054671;28;20740;-30
2023/06/02 01:57:34;;;;;;;1.60;1.50;;;;;;;21.16;57.80;97234.50;5054199;28;20197;-29
2023/06/02 02:00:03;;;;;;;1.60;1.50;;;;;;;21.17;57.83;97240.50;5046233;28;20204;-29
2023/06/02 02:02:30;;;;;;;1.70;1.60;;;;;;;21.16;57.54;97237.06;5054280;28;20594;-30
2023/06/02 02:04:56;;;;;;;1.47;1.37;;;;;;;21.15;57.72;97237.03;5054375;28;20254;-29
2023/06/02 02:07:23;;;;;;;1.50;1.40;;;;;;;21.16;57.97;97231.06;5054343;28;20558;-29
2023/06/02 02:09:50;;;;;;;1.50;1.40;;;;;;;21.14;57.66;97231.03;5047188;28;20193;-29
2023/06/02 02:12:16;;;;;;;1.47;1.37;;;;;;;21.14;57.61;97232.75;5053878;28;20251;-30
2023/06/02 02:14:43;;;;;;;2.33;1.60;;;;;;;21.15;57.64;97237.03;5054254;28;20201;-29
2023/06/02 02:17:10;;;;;;;1.63;1.53;;;;;;;21.16;57.72;97238.75;5054202;28;20243;-30
2023/06/02 02:19:37;;;;;;;1.23;1.23;;;;;;;21.15;57.70;97232.78;5045694;28;20201;-29
2023/06/02 02:22:04;;;;;;;1.70;1.60;;;;;;;21.16;57.42;97229.41;5053885;28;20275;-29
2023/06/02 02:24:30;;;;;;;1.60;1.50;;;;;;;21.16;57.76;97234.50;5046113;28;20652;-30
2023/06/02 02:26:57;;;;;;;1.70;1.60;;;;;;;21.16;57.67;97231.94;5053553;28;20228;-30
2023/06/02 02:29:24;;;;;;;1.57;1.47;;;;;;;21.16;57.47;97228.53;5053933;28;20200;-30
2023/06/02 02:31:51;;;;;;;2.67;1.40;;;;;;;21.15;57.66;97229.34;5036155;28;20243;-29
2023/06/02 02:34:19;;;;;;;2.07;1.60;;;;;;;21.16;57.77;97226.84;5052933;28;20201;-29
2023/06/02 02:36:48;;;;;;;1.80;1.70;;;;;;;21.15;57.55;97230.22;5053272;28;20297;-29
2023/06/02 02:39:15;;;;;;;1.90;1.73;;;;;;;21.15;57.69;97222.56;5053699;28;20593;-30
2023/06/02 02:41:41;;;;;;;1.70;1.60;;;;;;;21.16;57.93;97234.50;5045038;28;20283;-29
2023/06/02 02:44:08;;;;;;;1.60;1.50;;;;;;;21.17;57.51;97230.28;5052750;28;20564;-29
2023/06/02 02:46:34;;;;;;;1.60;1.50;;;;;;;21.15;57.71;97234.47;5053064;28;20585;-29
2023/06/02 02:49:01;;;;;;;1.53;1.43;;;;;;;21.16;57.85;97237.06;5053601;28;20270;-29
2023/06/02 02:51:27;;;;;;;1.70;1.60;;;;;;;21.16;57.75;97228.53;5053447;28;20259;-29
2023/06/02 02:53:54;;;;;;;1.57;1.47;;;;;;;21.13;57.89;97226.75;5051624;28;20624;-29
2023/06/02 02:56:22;;;;;;;1.70;1.60;;;;;;;21.16;57.77;97237.06;5046332;28;20722;-29
2023/06/02 02:58:49;;;;;;;1.60;1.50;;;;;;;21.16;57.58;97238.75;5052450;28;20197;-30
2023/06/02 03:01:16;;;;;;;1.80;1.70;;;;;;;21.17;57.54;97240.50;5053165;28;20201;-29
2023/06/02 03:03:44;;;;;;;1.67;1.57;;;;;;;21.14;57.28;97237.84;5052991;28;20711;-29
2023/06/02 03:06:18;;;;;;;1.83;1.73;;;;;;;21.11;57.99;97233.50;5047489;28;20253;-29
2023/06/02 03:08:48;;;;;;;1.80;1.70;;;;;;;21.16;57.77;97244.72;5034432;28;20232;-29
2023/06/02 03:11:14;;;;;;;1.90;1.80;;;;;;;21.17;57.79;97243.06;5046726;28;20204;-29
2023/06/02 03:13:41;;;;;;;1.67;1.57;;;;;;;21.16;58.07;97244.72;5052714;28;20225;-30
2023/06/02 03:16:07;;;;;;;3.00;1.70;;;;;;;21.14;57.83;97248.94;5048188;28;20564;-29
2023/06/02 03:18:34;;;;;;;1.73;1.63;;;;;;;21.16;57.78;97247.28;5037128;28;20629;-30
2023/06/02 03:21:02;;;;;;;1.63;1.53;;;;;;;21.15;57.90;97245.56;5048807;28;20586;-29
2023/06/02 03:23:29;;;;;;;1.67;1.57;;;;;;;21.15;57.85;97243.00;5041139;28;20230;-30
2023/06/02 03:25:55;;;;;;;1.70;1.60;;;;;;;21.12;57.85;97237.81;5041385;28;20255;-29
2023/06/02 03:28:22;;;;;;;1.73;1.63;;;;;;;21.13;57.29;97244.66;5034913;28;20227;-29
2023/06/02 03:30:48;;;;;;;1.60;1.50;;;;;;;21.14;57.85;97248.94;5043113;28;20273;-29
2023/06/02 03:33:15;;;;;;;1.90;1.80;;;;;;;21.15;57.54;97249.78;5045692;28;20216;-29
2023/06/02 03:35:42;;;;;;;1.60;1.50;;;;;;;21.15;57.70;97244.69;5052524;28;20197;-29
2023/06/02 03:38:08;;;;;;;1.63;1.47;;;;;;;21.13;57.67;97244.66;5044404;28;20247;-31
2023/06/02 03:40:35;;;;;;;1.60;1.50;;;;;;;21.16;57.96;97243.84;5044172;28;20259;-30
2023/06/02 03:43:01;;;;;;;1.40;1.30;;;;;;;21.16;57.20;97244.72;5052440;28;20217;-30
2023/06/02 03:45:28;;;;;;;1.60;1.50;;;;;;;21.16;57.73;97247.28;5046102;28;20208;-29
2023/06/02 03:47:54;;;;;;;1.63;1.53;;;;;;;21.17;57.38;97245.59;5034816;28;20294;-30
2023/06/02 03:50:21;;;;;;;1.77;1.67;;;;;;;21.14;57.90;97241.25;5052279;28;20288;-30
2023/06/02 03:52:48;;;;;;;1.70;1.60;;;;;;;21.15;57.55;97249.78;5052017;28;20283;-29
2023/06/02 03:55:16;;;;;;;1.70;1.60;;;;;;;21.13;57.63;97252.31;5052235;28;20203;-29
2023/06/02 03:57:44;;;;;;;1.80;1.70;;;;;;;21.16;57.46;97256.63;5036947;28;20661;-30
2023/06/02 04:00:11;;;;;;;1.77;1.67;;;;;;;21.15;57.82;97258.34;5052091;28;20274;-29
2023/06/02 04:02:38;;;;;;;1.80;1.70;;;;;;;21.10;57.84;97249.69;5051823;28;20255;-30
2023/06/02 04:05:05;;;;;;;1.70;1.60;;;;;;;21.14;57.57;97253.19;5043878;28;20201;-29
2023/06/02 04:07:31;;;;;;;1.63;1.53;;;;;;;21.16;57.61;97259.19;5043544;28;20236;-30
2023/06/02 04:09:58;;;;;;;1.80;1.70;;;;;;;21.16;57.87;97260.06;5043715;28;20208;-30
2023/06/02 04:12:25;;;;;;;1.90;1.80;;;;;;;21.15;57.69;97262.56;5047438;28;20216;-29
2023/06/02 04:14:51;;;;;;;1.57;1.47;;;;;;;21.16;57.89;97259.19;5051951;28;20251;-30
2023/06/02 04:17:18;;;;;;;1.77;1.67;;;;;;;21.16;57.97;97262.63;5051762;28;20197;-30
2023/06/02 04:19:45;;;;;;;1.83;1.73;;;;;;;21.15;57.80;97283.91;5034363;28;20263;-30
2023/06/02 04:22:12;;;;;;;1.70;1.60;;;;;;;21.17;57.79;97277.13;5048174;28;20774;-34
2023/06/02 04:24:41;;;;;;;1.57;1.47;;;;;;;21.13;57.72;97266.78;5051186;28;20643;-30
2023/06/02 04:27:07;;;;;;;1.90;1.80;;;;;;;21.16;57.45;97277.06;5035509;28;20638;-30
2023/06/02 04:29:34;;;;;;;1.70;1.60;;;;;;;21.16;57.94;97280.50;5051940;28;20196;-29
2023/06/02 04:32:01;;;;;;;1.63;1.53;;;;;;;21.17;57.58;97286.50;5045086;28;20227;-29
2023/06/02 04:34:28;;;;;;;2.00;1.90;;;;;;;21.17;57.65;97294.16;5051301;28;20209;-29
2023/06/02 04:36:55;;;;;;;2.27;1.57;;;;;;;21.18;57.66;97293.31;5044212;28;20205;-29
2023/06/02 04:39:22;;;;;;;1.80;1.70;;;;;;;21.18;57.62;97295.88;5051642;28;20258;-30
2023/06/02 04:41:49;;;;;;;1.70;1.60;;;;;;;21.16;57.68;97300.06;5040193;28;20283;-29
2023/06/02 04:44:18;;;;;;;1.57;1.47;;;;;;;21.15;57.56;97283.03;5051378;28;20201;-30
2023/06/02 04:46:45;;;;;;;1.97;1.87;;;;;;;21.16;57.72;97290.72;5051249;28;20212;-30
2023/06/02 04:49:12;;;;;;;1.77;1.67;;;;;;;21.17;57.59;97299.28;5046270;28;20284;-29
2023/06/02 04:51:38;;;;;;;2.10;1.90;;;;;;;21.16;57.89;97300.06;5033941;28;20193;-30
2023/06/02 04:54:06;;;;;;;1.60;1.50;;;;;;;21.17;57.73;97299.28;5043220;28;20197;-30
2023/06/02 04:56:34;;;;;;;1.80;1.70;;;;;;;21.17;57.67;97295.00;5047205;28;20204;-29
2023/06/02 04:59:00;;;;;;;2.07;1.97;;;;;;;21.18;58.06;97299.31;5039117;28;20224;-30
2023/06/02 05:01:28;;;;;;;1.70;1.60;;;;;;;21.18;57.68;97291.66;5049473;28;20200;-29
2023/06/02 05:03:55;;;;;;;1.63;1.53;;;;;;;21.19;57.83;97292.50;5049056;28;20219;-30
2023/06/02 05:06:21;;;;;;;1.80;1.70;;;;;;;21.19;57.74;97295.91;5045797;28;20278;-29
2023/06/02 05:08:50;;;;;;;1.80;1.70;;;;;;;21.19;57.54;97289.94;5040826;28;20616;-30
2023/06/02 05:11:16;;;;;;;1.90;1.80;;;;;;;21.18;58.02;97299.31;5049810;28;20257;-30
2023/06/02 05:13:44;;;;;;;2.00;1.90;;;;;;;21.18;57.55;97290.75;5052557;28;20722;-30
2023/06/02 05:16:10;;;;;;;2.37;2.00;;;;;;;21.18;57.63;97301.88;5050634;28;20197;-30
2023/06/02 05:18:37;;;;;;;1.93;1.83;;;;;;;21.19;57.63;97300.16;5044755;28;20201;-30
2023/06/02 05:21:04;;;;;;;1.80;1.70;;;;;;;21.19;57.97;97305.25;5047184;28;20209;-29
2023/06/02 05:23:30;;;;;;;2.00;1.90;;;;;;;21.18;57.66;97301.00;5055141;28;20228;-29
2023/06/02 05:25:57;;;;;;;1.90;1.80;;;;;;;21.18;58.03;97311.22;5054866;28;20201;-30
2023/06/02 05:28:23;;;;;;;1.70;1.60;;;;;;;21.19;57.65;97310.38;5052218;28;20201;-29
2023/06/02 05:30:50;;;;;;;2.10;1.90;;;;;;;21.19;57.28;97315.50;5054476;28;20199;-29
2023/06/02 05:33:16;;;;;;;2.07;1.87;;;;;;;21.18;57.83;97312.09;5049994;28;20649;-29
2023/06/02 05:35:43;;;;;;;1.90;1.80;;;;;;;21.19;57.75;97303.59;5052159;28;20258;-30
2023/06/02 05:38:10;;;;;;;1.70;1.60;;;;;;;21.20;57.78;97314.69;5053752;28;20223;-29
2023/06/02 05:40:36;;;;;;;2.03;1.93;;;;;;;21.19;57.44;97306.16;5054569;28;20250;-30
2023/06/02 05:43:03;;;;;;;1.80;1.70;;;;;;;21.19;57.74;97305.25;5051336;28;20271;-30
2023/06/02 05:45:29;;;;;;;2.00;1.90;;;;;;;21.19;57.77;97313.81;5046886;28;20233;-29
2023/06/02 05:47:56;;;;;;;1.70;1.60;;;;;;;21.20;57.87;97318.09;5054642;28;20224;-30
2023/06/02 05:50:23;;;;;;;1.80;1.70;;;;;;;21.20;57.79;97307.03;5046991;28;20262;-29
2023/06/02 05:52:50;;;;;;;1.97;1.87;;;;;;;21.21;57.52;97317.28;5054448;28;20698;-30
2023/06/02 05:55:17;;;;;;;1.90;1.80;;;;;;;21.19;57.85;97311.25;5046106;28;20201;-30
2023/06/02 05:57:43;;;;;;;1.90;1.80;;;;;;;21.19;57.60;97303.59;5045549;28;20205;-32
2023/06/02 06:00:11;;;;;;;1.70;1.60;;;;;;;21.19;57.71;97316.38;5051744;28;20609;-29
2023/06/02 06:02:37;;;;;;;1.90;1.80;;;;;;;21.20;57.56;97315.53;5047937;28;20279;-29
2023/06/02 06:05:05;;;;;;;1.90;1.80;;;;;;;21.21;57.68;97321.50;5054140;28;20293;-29
2023/06/02 06:07:31;;;;;;;1.97;1.87;;;;;;;21.18;57.87;97312.09;5054307;28;20228;-29
2023/06/02 06:09:58;;;;;;;2.00;1.90;;;;;;;21.20;57.66;97315.53;5036243;28;20220;-29
2023/06/02 06:12:24;;;;;;;2.10;2.00;;;;;;;21.20;57.51;97320.63;5049089;28;20270;-29
2023/06/02 06:14:51;;;;;;;1.90;1.80;;;;;;;21.20;57.48;97320.63;5054380;28;20244;-29
2023/06/02 06:17:18;;;;;;;2.03;1.93;;;;;;;21.20;57.68;97323.19;5045895;28;20675;-30
2023/06/02 06:19:44;;;;;;;1.70;1.60;;;;;;;21.20;57.49;97325.75;5037365;28;20255;-30
2023/06/02 06:22:11;;;;;;;2.10;1.97;;;;;;;21.21;57.92;97326.63;5040508;28;20217;-29
2023/06/02 06:24:38;;;;;;;1.80;1.70;;;;;;;21.21;57.97;97331.75;5046650;28;20205;-29
2023/06/02 06:27:05;;;;;;;1.90;1.80;;;;;;;21.21;57.73;97330.06;5045302;28;20221;-29
2023/06/02 06:29:32;;;;;;;1.80;1.70;;;;;;;21.21;57.67;97334.28;5054109;28;20204;-29
2023/06/02 06:31:59;;;;;;;1.90;1.80;;;;;;;21.21;57.66;97330.06;5053626;28;20320;-29
2023/06/02 06:34:27;;;;;;;2.10;2.00;;;;;;;21.21;57.77;97331.75;5053822;28;20729;-30
2023/06/02 06:36:53;;;;;;;2.10;2.00;;;;;;;21.19;57.91;97325.72;5046716;28;20679;-29
2023/06/02 06:39:20;;;;;;;1.83;1.73;;;;;;;21.21;57.57;97324.94;5054047;28;20671;-30
2023/06/02 06:41:47;;;;;;;2.40;2.07;;;;;;;21.21;57.67;97324.94;5045970;28;20776;-32
2023/06/02 06:44:14;;;;;;;1.83;1.73;;;;;;;21.21;57.56;97321.50;5051307;28;20722;-29
2023/06/02 06:46:41;;;;;;;1.77;1.67;;;;;;;21.21;57.54;97326.63;5053355;28;20272;-29
2023/06/02 06:49:07;;;;;;;2.20;2.00;;;;;;;21.20;57.65;97315.53;5050099;28;20710;-29
2023/06/02 06:51:36;;;;;;;1.97;1.87;;;;;;;21.21;57.77;97324.94;5049839;28;20205;-29
2023/06/02 06:54:02;;;;;;;2.00;1.90;;;;;;;21.21;57.66;97326.63;5053476;28;20612;-30
2023/06/02 06:56:32;;;;;;;1.87;1.77;;;;;;;21.21;57.64;97331.75;5053354;28;20262;-29
2023/06/02 06:58:59;;;;;;;2.07;1.87;;;;;;;21.21;57.65;97345.41;5053380;28;20247;-29
2023/06/02 07:01:26;;;;;;;1.90;1.80;;;;;;;21.22;57.80;97346.25;5053463;28;20201;-30
2023/06/02 07:03:52;;;;;;;1.90;1.80;;;;;;;21.21;57.57;97342.84;5041320;28;20197;-29
2023/06/02 07:06:19;;;;;;;2.00;1.90;;;;;;;21.22;57.74;97346.25;5048520;28;20209;-29
2023/06/02 07:08:45;;;;;;;1.83;1.73;;;;;;;21.21;57.66;97341.97;5051211;28;20623;-29
2023/06/02 07:11:12;;;;;;;2.00;1.80;;;;;;;21.22;57.21;97351.34;5035361;28;20197;-29
2023/06/02 07:13:40;;;;;;;2.17;2.03;;;;;;;21.22;57.56;97353.91;5053035;28;20227;-29
2023/06/02 07:16:06;;;;;;;1.93;1.83;;;;;;;21.18;58.02;97345.31;5049769;28;20609;-29
2023/06/02 07:18:33;;;;;;;1.93;1.80;;;;;;;21.20;57.44;97338.53;5041900;28;20200;-29
2023/06/02 07:21:00;;;;;;;2.07;1.97;;;;;;;21.21;57.35;97342.84;5050543;28;20254;-29
2023/06/02 07:23:27;;;;;;;2.00;1.90;;;;;;;21.21;57.72;97345.41;5047175;28;20220;-29
2023/06/02 07:25:54;;;;;;;1.97;1.87;;;;;;;21.21;58.20;97347.94;5038773;28;20594;-29
2023/06/02 07:28:20;;;;;;;1.90;1.80;;;;;;;21.22;57.50;97344.56;5046021;28;20220;-29
2023/06/02 07:31:05;;;;;;;2.23;2.10;;;;;;;21.22;57.33;97349.66;5052287;28;20212;-29
2023/06/02 07:33:36;;;;;;;2.20;2.00;;;;;;;21.21;57.62;97347.06;5052673;28;20742;-29
2023/06/02 07:36:03;;;;;;;2.10;2.00;;;;;;;21.22;57.49;97349.66;5052475;28;20679;-29
2023/06/02 07:38:30;;;;;;;1.70;1.60;;;;;;;21.23;57.57;97351.41;5046462;28;20217;-30
2023/06/02 07:40:56;;;;;;;2.30;2.10;;;;;;;21.22;57.60;97351.34;5050214;28;20205;-30
2023/06/02 07:43:23;;;;;;;2.10;2.00;;;;;;;21.18;57.29;97342.75;5048071;28;20484;-30
2023/06/02 07:45:50;;;;;;;2.30;2.10;;;;;;;21.23;57.58;97342.88;5052161;28;20207;-29
2023/06/02 07:48:16;;;;;;;1.90;1.80;;;;;;;21.21;57.79;97340.28;5052496;28;20228;-29
2023/06/02 07:50:43;;;;;;;1.93;1.83;;;;;;;21.23;57.23;97343.72;5052370;28;20205;-29
2023/06/02 07:53:09;;;;;;;2.00;1.90;;;;;;;21.22;57.81;97351.34;5050021;28;20260;-29
2023/06/02 07:55:36;;;;;;;1.90;1.80;;;;;;;21.23;57.74;97342.88;5052138;28;20287;-29
2023/06/02 07:58:03;;;;;;;1.80;1.70;;;;;;;21.21;57.66;97347.94;5052216;28;20246;-29
2023/06/02 08:00:29;;;;;;;2.07;1.97;;;;;;;21.22;57.96;97347.13;5052323;28;20209;-29
2023/06/02 08:02:56;;;;;;;2.20;2.00;;;;;;;21.23;57.79;97358.22;5046156;28;20237;-30
2023/06/02 08:05:23;;;;;;;1.87;1.77;;;;;;;21.23;57.86;97356.50;5043790;28;20200;-30
2023/06/02 08:07:50;;;;;;;2.17;2.07;;;;;;;21.19;57.67;97341.03;5051822;28;20256;-30
2023/06/02 08:10:16;;;;;;;2.00;1.90;;;;;;;21.22;57.51;97344.56;5043572;28;20236;-29
2023/06/02 08:12:43;;;;;;;1.83;1.73;;;;;;;21.24;57.62;97359.94;5051919;28;20221;-29
2023/06/02 08:15:10;;;;;;;2.07;1.97;;;;;;;21.24;57.73;97352.28;5051887;28;20208;-30
2023/06/02 08:17:36;;;;;;;1.83;1.73;;;;;;;21.22;57.42;97349.66;5051873;28;20207;-29
2023/06/02 08:20:04;;;;;;;2.07;1.90;;;;;;;21.21;57.52;97340.28;5037780;28;20202;-29
2023/06/02 08:22:32;;;;;;;2.00;1.90;;;;;;;21.24;57.59;97349.72;5043359;28;20633;-30
2023/06/02 08:24:58;;;;;;;1.93;1.83;;;;;;;21.24;57.56;97344.59;5051698;28;20197;-29
2023/06/02 08:27:25;;;;;;;1.90;1.80;;;;;;;21.24;57.74;97345.47;5043441;28;20213;-29
2023/06/02 08:29:51;;;;;;;1.80;1.70;;;;;;;21.21;57.47;97347.06;5044232;28;20262;-30
2023/06/02 08:32:18;;;;;;;2.00;1.90;;;;;;;21.22;57.63;97349.66;5032163;28;20782;-29
2023/06/02 08:34:47;;;;;;;2.03;1.93;;;;;;;21.23;57.64;97343.72;5043720;28;20235;-30
2023/06/02 08:37:17;;;;;;;1.70;1.60;;;;;;;21.24;57.36;97352.28;5045744;28;20197;-29
2023/06/02 08:39:44;;;;;;;2.13;1.93;;;;;;;21.23;57.36;97353.09;5052185;28;20201;-29
2023/06/02 08:42:11;;;;;;;1.97;1.87;;;;;;;21.17;57.73;97337.59;5050539;28;20217;-30
2023/06/02 08:44:41;;;;;;;1.80;1.70;;;;;;;21.23;57.48;97353.94;5041801;28;20237;-30
2023/06/02 08:47:11;;;;;;;1.80;1.70;;;;;;;21.24;57.39;97352.28;5051414;28;20459;-29
2023/06/02 08:49:42;;;;;;;2.37;2.17;;;;;;;21.25;57.59;97356.53;5036267;28;20202;-29
2023/06/02 08:52:18;;;;;;;2.00;1.90;;;;;;;21.24;57.55;97352.28;5043152;28;20228;-30
2023/06/02 08:54:45;;;;;;;2.27;1.80;;;;;;;21.24;57.65;97350.59;5050277;28;20627;-30
2023/06/02 08:57:16;;;;;;;1.87;1.77;;;;;;;21.24;57.54;97340.38;5017334;28;20197;-30
2023/06/02 08:59:46;;;;;;;1.97;1.87;;;;;;;21.24;57.56;97347.16;5051247;28;20201;-29
2023/06/02 09:02:14;;;;;;;1.87;1.77;;;;;;;21.25;57.60;97342.09;5050902;28;20259;-29
2023/06/02 09:04:40;;;;;;;1.90;1.80;;;;;;;21.25;58.12;97336.09;5051442;28;20207;-29
2023/06/02 09:07:13;;;;;;;1.90;1.80;;;;;;;21.25;57.70;97336.09;5051337;28;20196;-29
2023/06/02 09:09:41;;;;;;;1.93;1.83;;;;;;;21.25;57.56;97336.09;5047595;28;20204;-29
2023/06/02 09:12:08;;;;;;;2.10;2.00;;;;;;;21.25;57.59;97338.66;5041659;28;20625;-30
2023/06/02 09:14:35;;;;;;;1.77;1.67;;;;;;;21.24;57.67;97342.91;5039594;28;20449;-30
2023/06/02 09:17:02;;;;;;;2.00;1.90;;;;;;;21.23;57.42;97330.94;5049231;28;20204;-29
2023/06/02 09:19:50;;;;;;;1.80;1.70;;;;;;;21.25;57.64;97339.53;5051353;28;20227;-30
2023/06/02 09:22:16;;;;;;;2.00;1.90;;;;;;;21.26;57.73;97342.97;5039921;28;20225;-30
2023/06/02 09:24:43;;;;;;;1.80;1.70;;;;;;;21.25;57.44;97346.31;5051366;28;20200;-29
2023/06/02 09:27:13;;;;;;;2.00;1.90;;;;;;;21.25;57.78;97343.75;5042509;28;20205;-29
2023/06/02 09:29:40;;;;;;;1.80;1.70;;;;;;;21.25;57.60;97341.22;5044350;28;20209;-30
2023/06/02 09:32:14;;;;;;;2.20;2.00;;;;;;;21.26;57.62;97353.19;5044814;28;20224;-29
2023/06/02 09:34:41;;;;;;;1.90;1.80;;;;;;;21.26;57.49;97353.19;5051264;28;20584;-30
2023/06/02 09:37:09;;;;;;;1.93;1.83;;;;;;;21.26;57.76;97348.91;5048641;28;20205;-30
2023/06/02 09:39:42;;;;;;;2.33;2.13;;;;;;;21.25;57.62;97342.09;5050691;28;20256;-29
2023/06/02 09:42:12;;;;;;;1.90;1.80;;;;;;;21.26;57.54;97353.19;5045002;28;20279;-29
2023/06/02 09:44:40;;;;;;;1.90;1.80;;;;;;;21.22;57.65;97343.69;5050899;28;20201;-30
2023/06/02 09:47:20;;;;;;;2.00;1.90;;;;;;;21.26;57.56;97350.63;5033371;28;20201;-29
2023/06/02 09:49:46;;;;;;;1.70;1.60;;;;;;;21.25;57.80;97343.75;5050650;28;20679;-29
2023/06/02 09:52:14;;;;;;;1.83;1.73;;;;;;;21.26;57.67;97353.19;5050385;28;20231;-30
2023/06/02 09:54:45;;;;;;;1.80;1.70;;;;;;;21.25;57.74;97354.00;5052873;28;20208;-30
2023/06/02 09:57:12;;;;;;;1.73;1.63;;;;;;;21.26;57.47;97353.19;5052249;28;20197;-30
2023/06/02 09:59:39;;;;;;;2.00;1.90;;;;;;;21.25;57.72;97354.00;5041006;28;20726;-30
2023/06/02 10:02:08;;;;;;;1.90;1.73;;;;;;;21.27;57.86;97347.25;5053301;28;20233;-30
2023/06/02 10:04:35;;;;;;;1.77;1.67;;;;;;;21.26;57.47;97356.59;5054650;28;20289;-29
2023/06/02 10:07:23;;;;;;;1.93;1.83;;;;;;;21.26;57.41;97356.59;5048607;28;20664;-30
2023/06/02 10:10:24;;;;;;;1.70;1.60;;;;;;;21.26;57.62;97353.19;5033131;28;20210;-29
2023/06/02 10:13:00;;;;;;;1.67;1.57;;;;;;;21.26;57.62;97353.19;5050470;28;20229;-30
2023/06/02 10:15:36;;;;;;;1.67;1.57;;;;;;;21.26;57.41;97351.47;5051410;28;20201;-29
2023/06/02 10:18:41;;;;;;;1.93;1.83;;;;;;;21.26;57.56;97353.19;5047519;28;20660;-30
2023/06/02 10:21:34;;;;;;;1.93;1.83;;;;;;;21.26;57.69;97358.31;4991418;28;20199;-29
2023/06/02 10:24:06;;;;;;;2.00;1.90;;;;;;;21.26;57.52;97358.31;5034403;28;20197;-29
2023/06/02 10:26:52;;;;;;;2.00;1.90;;;;;;;21.25;57.80;97352.31;5026714;28;20280;-29
2023/06/02 10:29:18;;;;;;;1.90;1.80;;;;;;;21.26;57.83;97342.97;5047164;28;20723;-30
2023/06/02 10:31:45;;;;;;;1.60;1.50;;;;;;;21.23;56.76;97348.00;5049506;28;20691;-30
2023/06/02 10:34:48;;;;;;;1.40;1.30;;;;;;;21.25;56.01;97341.22;5018708;28;20327;-30
2023/06/02 10:37:15;;;;;;;1.40;1.30;;;;;;;21.23;55.32;97345.44;4952707;29;20695;-29
2023/06/02 10:39:42;;;;;;;2.93;1.40;;;;;;;21.24;55.87;97352.28;5029854;28;20209;-30
2023/06/02 10:42:09;;;;;;;2.77;1.37;;;;;;;21.23;55.73;97341.16;5053089;28;20251;-29
2023/06/02 10:44:36;;;;;;;2.60;2.07;;;;;;;21.23;56.02;97343.72;5052095;28;20220;-30
2023/06/02 10:47:18;;;;;;;2.07;1.97;;;;;;;21.23;55.92;97338.63;5049392;28;20201;-30
2023/06/02 10:49:54;;;;;;;2.90;1.83;;;;;;;21.24;55.78;97329.28;5052812;28;20255;-30
2023/06/02 10:52:22;;;;;;;3.90;2.07;;;;;;;21.22;55.80;97336.88;5051029;28;20275;-29
2023/06/02 10:55:07;;;;;;;2.77;2.20;;;;;;;21.22;56.07;97341.13;5052290;28;20193;-30
2023/06/02 10:57:55;;;;;;;5.43;2.10;;;;;;;21.16;56.19;97326.50;5052448;28;20675;-29
2023/06/02 11:00:27;;;;;;;1.97;1.77;;;;;;;21.21;56.07;97342.84;5051954;28;20247;-29
2023/06/02 11:02:54;;;;;;;2.57;1.50;;;;;;;21.23;56.26;97332.66;5053170;28;20220;-29
2023/06/02 11:05:25;;;;;;;8.70;1.80;;;;;;;21.22;56.00;97326.66;5051398;28;20201;-30
2023/06/02 11:08:14;;;;;;;5.83;2.07;;;;;;;21.23;56.14;97322.44;5048218;28;20220;-30
2023/06/02 11:10:41;;;;;;;6.53;2.30;;;;;;;21.24;55.81;97319.91;5052628;28;20205;-29
2023/06/02 11:13:08;;;;;;;5.20;2.20;;;;;;;21.24;55.95;97335.25;5053017;28;20225;-29
2023/06/02 11:15:34;;;;;;;3.77;2.40;;;;;;;21.24;55.95;97325.03;5052674;28;20255;-29
2023/06/02 11:18:09;;;;;;;13.27;2.97;;;;;;;21.24;56.01;97330.16;5052450;28;20248;-29
2023/06/02 11:20:35;;;;;;;7.10;2.47;;;;;;;21.25;55.81;97328.44;5034567;28;20192;-30
2023/06/02 11:23:05;;;;;;;8.90;2.97;;;;;;;21.26;55.80;97331.03;5052427;28;20716;-30
2023/06/02 11:25:32;;;;;;;15.87;3.23;;;;;;;21.27;56.05;97331.91;5052547;28;20204;-29
2023/06/02 11:27:58;;;;;;;9.87;4.07;;;;;;;21.26;55.94;97335.31;5052734;28;20213;-30
2023/06/02 11:30:25;;;;;;;13.20;3.53;;;;;;;21.22;56.05;97315.56;5052685;28;20586;-29
2023/06/02 11:32:52;;;;;;;17.17;3.80;;;;;;;21.24;55.64;97327.59;5052096;28;20220;-30
2023/06/02 11:35:21;;;;;;;18.13;4.53;;;;;;;21.25;55.77;97323.31;5051534;28;20288;-29
2023/06/02 11:38:08;;;;;;;14.63;4.00;;;;;;;21.19;55.88;97321.47;5034156;28;20193;-30
2023/06/02 11:40:35;;;;;;;15.97;3.97;;;;;;;21.23;55.95;97322.44;5046985;28;20198;-29